Time;durP1;ratioP1;P1;durP2;ratioP2;P2;SDS_P1;SDS_P2;PMS_P1;PMS_P2;Temp;Humidity;BMP_temperature;BMP_pressure;BME280_temperature;BME280_humidity;BME280_pressure;Samples;Min_cycle;Max_cycle;Signal;HPM_P1;HPM_P2
2022/03/07 00:01:15;;;;;;;3.60;3.30;;;;;;;;;;5123001;27;20821;-67
2022/03/07 00:04:02;;;;;;;4.10;3.80;;;;;;;;;;5117801;27;20347;-68
2022/03/07 00:06:50;;;;;;;4.47;4.07;;;;;;;;;;5122026;27;20591;-67
2022/03/07 00:09:37;;;;;;;4.43;4.07;;;;;;;;;;5115246;27;20203;-68
2022/03/07 00:12:24;;;;;;;4.03;3.73;;;;;;;;;;5116795;27;20218;-68
2022/03/07 00:15:15;;;;;;;3.97;3.57;;;;;;;;;;5116907;27;20206;-68
2022/03/07 00:18:01;;;;;;;3.67;3.37;;;;;;;;;;5117962;27;20654;-68
2022/03/07 00:20:48;;;;;;;3.60;3.30;;;;;;;;;;5121849;27;20223;-68
2022/03/07 00:23:35;;;;;;;3.50;3.20;;;;;;;;;;5119482;27;20252;-68
2022/03/07 00:26:22;;;;;;;4.33;3.57;;;;;;;;;;5115224;27;20212;-69
2022/03/07 00:29:09;;;;;;;3.43;3.13;;;;;;;;;;5116946;27;20202;-67
2022/03/07 00:31:58;;;;;;;3.67;3.20;;;;;;;;;;5118946;27;20253;-68
2022/03/07 00:34:45;;;;;;;3.43;3.20;;;;;;;;;;5120350;27;20211;-69
2022/03/07 00:37:32;;;;;;;3.37;3.10;;;;;;;;;;5118470;27;20203;-68
2022/03/07 00:40:19;;;;;;;3.47;3.27;;;;;;;;;;5119567;27;20206;-68
2022/03/07 00:43:08;;;;;;;3.33;3.13;;;;;;;;;;5117516;27;20246;-68
2022/03/07 00:45:55;;;;;;;2.83;2.63;;;;;;;;;;5118656;27;20208;-68
2022/03/07 00:48:43;;;;;;;2.93;2.73;;;;;;;;;;5118031;27;20671;-68
2022/03/07 00:51:30;;;;;;;4.80;3.23;;;;;;;;;;5120377;27;20218;-68
2022/03/07 00:54:17;;;;;;;3.10;2.90;;;;;;;;;;5120584;27;20305;-68
2022/03/07 00:57:05;;;;;;;3.20;3.00;;;;;;;;;;5119332;27;20233;-68
2022/03/07 00:59:52;;;;;;;3.07;2.87;;;;;;;;;;5120544;27;20784;-68
2022/03/07 01:02:39;;;;;;;3.27;3.07;;;;;;;;;;5116807;27;20226;-68
2022/03/07 01:05:27;;;;;;;3.07;2.87;;;;;;;;;;5117591;28;20319;-69
2022/03/07 01:08:14;;;;;;;3.73;3.00;;;;;;;;;;5119198;28;20803;-68
2022/03/07 01:11:01;;;;;;;3.20;2.90;;;;;;;;;;5117618;28;20701;-68
2022/03/07 01:13:48;;;;;;;2.90;2.70;;;;;;;;;;5119536;28;20250;-68
2022/03/07 01:16:35;;;;;;;3.17;2.90;;;;;;;;;;5113179;28;20275;-68
2022/03/07 01:19:22;;;;;;;2.93;2.73;;;;;;;;;;5118665;28;20282;-68
2022/03/07 01:22:10;;;;;;;2.83;2.63;;;;;;;;;;5119453;28;20301;-68
2022/03/07 01:24:57;;;;;;;3.33;3.00;;;;;;;;;;5120615;28;20704;-68
2022/03/07 01:27:44;;;;;;;3.33;2.80;;;;;;;;;;5119566;28;20211;-68
2022/03/07 01:30:31;;;;;;;3.40;3.10;;;;;;;;;;5118391;28;20206;-68
2022/03/07 01:33:18;;;;;;;3.50;3.20;;;;;;;;;;5115896;28;20245;-68
2022/03/07 01:36:05;;;;;;;3.43;3.13;;;;;;;;;;5118493;28;20258;-68
2022/03/07 01:38:54;;;;;;;3.27;2.93;;;;;;;;;;5116804;28;20226;-68
2022/03/07 01:41:41;;;;;;;3.37;3.07;;;;;;;;;;5117239;28;20203;-68
2022/03/07 01:44:28;;;;;;;3.10;2.90;;;;;;;;;;5098188;28;20682;-69
2022/03/07 01:47:15;;;;;;;3.00;2.73;;;;;;;;;;5099473;28;20207;-68
2022/03/07 01:50:02;;;;;;;2.83;2.63;;;;;;;;;;5099687;28;20691;-69
2022/03/07 01:52:53;;;;;;;2.97;2.77;;;;;;;;;;5096800;28;20271;-68
2022/03/07 01:55:42;;;;;;;2.70;2.50;;;;;;;;;;5098603;28;20578;-69
2022/03/07 01:58:28;;;;;;;3.20;3.00;;;;;;;;;;5097575;28;20290;-68
2022/03/07 02:01:15;;;;;;;3.40;3.03;;;;;;;;;;5103206;28;20724;-72
2022/03/07 02:04:02;;;;;;;3.23;3.03;;;;;;;;;;5101265;28;20775;-72
2022/03/07 02:06:49;;;;;;;3.43;3.03;;;;;;;;;;5102439;28;20307;-72
2022/03/07 02:09:36;;;;;;;3.33;3.13;;;;;;;;;;5100048;28;20619;-71
2022/03/07 02:12:25;;;;;;;2.93;2.63;;;;;;;;;;5102398;28;20284;-72
2022/03/07 02:15:12;;;;;;;3.17;2.97;;;;;;;;;;5100977;28;20200;-72
2022/03/07 02:17:58;;;;;;;3.30;3.00;;;;;;;;;;5099981;28;20296;-72
2022/03/07 02:20:46;;;;;;;2.83;2.63;;;;;;;;;;5096832;28;20743;-72
2022/03/07 02:23:35;;;;;;;3.37;3.07;;;;;;;;;;5099083;28;20234;-71
2022/03/07 02:26:22;;;;;;;2.90;2.70;;;;;;;;;;5099657;28;20235;-72
2022/03/07 02:29:10;;;;;;;3.20;2.80;;;;;;;;;;5098950;28;20257;-71
2022/03/07 02:31:58;;;;;;;2.60;2.40;;;;;;;;;;5099858;28;20368;-72
2022/03/07 02:34:44;;;;;;;2.90;2.70;;;;;;;;;;5100523;28;20360;-72
2022/03/07 02:37:33;;;;;;;2.80;2.60;;;;;;;;;;5098549;28;20718;-72
2022/03/07 02:40:21;;;;;;;2.77;2.57;;;;;;;;;;5104113;28;20211;-72
2022/03/07 02:43:08;;;;;;;3.10;2.90;;;;;;;;;;5110126;27;20527;-72
2022/03/07 02:45:58;;;;;;;3.00;2.80;;;;;;;;;;5123541;27;20211;-72
2022/03/07 02:48:45;;;;;;;2.80;2.60;;;;;;;;;;5118433;27;20253;-72
2022/03/07 02:51:32;;;;;;;2.87;2.70;;;;;;;;;;5123187;27;20305;-72
2022/03/07 02:54:19;;;;;;;2.73;2.53;;;;;;;;;;5120186;27;20198;-71
2022/03/07 02:57:08;;;;;;;2.93;2.63;;;;;;;;;;5120750;27;20211;-72
2022/03/07 02:59:55;;;;;;;2.90;2.70;;;;;;;;;;5120290;27;20678;-72
2022/03/07 03:02:42;;;;;;;2.70;2.50;;;;;;;;;;5122124;27;20243;-71
2022/03/07 03:05:29;;;;;;;2.37;2.27;;;;;;;;;;5123000;27;20202;-71
2022/03/07 03:08:16;;;;;;;2.70;2.50;;;;;;;;;;5124719;27;20286;-72
2022/03/07 03:11:04;;;;;;;2.57;2.37;;;;;;;;;;5117483;27;20202;-72
2022/03/07 03:13:52;;;;;;;2.87;2.67;;;;;;;;;;5123209;27;20203;-72
2022/03/07 03:16:39;;;;;;;2.73;2.53;;;;;;;;;;5123018;27;20229;-71
2022/03/07 03:19:26;;;;;;;2.93;2.63;;;;;;;;;;5121119;27;20214;-71
2022/03/07 03:22:13;;;;;;;2.53;2.33;;;;;;;;;;5119616;27;20281;-72
2022/03/07 03:25:00;;;;;;;2.70;2.50;;;;;;;;;;5126202;27;20235;-72
2022/03/07 03:27:47;;;;;;;2.57;2.40;;;;;;;;;;5118231;27;20206;-72
2022/03/07 03:30:36;;;;;;;2.30;2.20;;;;;;;;;;5120606;27;20287;-72
2022/03/07 03:33:22;;;;;;;2.50;2.40;;;;;;;;;;5119108;27;20365;-72
2022/03/07 03:36:09;;;;;;;2.60;2.40;;;;;;;;;;5119713;27;20301;-72
2022/03/07 03:38:56;;;;;;;2.20;2.10;;;;;;;;;;5122002;27;20214;-72
2022/03/07 03:41:44;;;;;;;2.70;2.50;;;;;;;;;;5117901;27;20579;-72
2022/03/07 03:44:31;;;;;;;2.40;2.30;;;;;;;;;;5122856;27;20254;-72
2022/03/07 03:47:20;;;;;;;2.50;2.30;;;;;;;;;;5120055;27;20679;-72
2022/03/07 03:50:09;;;;;;;2.73;2.53;;;;;;;;;;5116976;27;20301;-72
2022/03/07 03:52:56;;;;;;;2.73;2.57;;;;;;;;;;5119926;27;20700;-72
2022/03/07 03:55:43;;;;;;;3.23;2.70;;;;;;;;;;5119488;27;20214;-71
2022/03/07 03:58:30;;;;;;;2.50;2.40;;;;;;;;;;5116457;27;20219;-71
2022/03/07 04:01:17;;;;;;;2.60;2.50;;;;;;;;;;5120046;27;20227;-72
2022/03/07 04:04:05;;;;;;;2.40;2.30;;;;;;;;;;5121340;27;20291;-71
2022/03/07 04:06:52;;;;;;;3.00;2.80;;;;;;;;;;5118353;27;20318;-72
2022/03/07 04:09:39;;;;;;;2.47;2.37;;;;;;;;;;5119147;27;20201;-72
2022/03/07 04:12:26;;;;;;;2.70;2.60;;;;;;;;;;5117635;27;20369;-72
2022/03/07 04:15:14;;;;;;;2.40;2.30;;;;;;;;;;5117962;27;20673;-72
2022/03/07 04:18:01;;;;;;;2.50;2.30;;;;;;;;;;5116965;27;20257;-71
2022/03/07 04:20:49;;;;;;;2.60;2.37;;;;;;;;;;5120382;27;20248;-72
2022/03/07 04:23:36;;;;;;;2.63;2.30;;;;;;;;;;5120903;27;20253;-72
2022/03/07 04:26:23;;;;;;;2.90;2.70;;;;;;;;;;5121200;27;20303;-72
2022/03/07 04:29:11;;;;;;;2.67;2.27;;;;;;;;;;5118326;27;20678;-72
2022/03/07 04:31:58;;;;;;;2.63;2.43;;;;;;;;;;5120483;27;20258;-72
2022/03/07 04:34:45;;;;;;;2.97;2.77;;;;;;;;;;5116805;27;20300;-72
2022/03/07 04:37:33;;;;;;;2.50;2.30;;;;;;;;;;5120110;27;20481;-72
2022/03/07 04:40:20;;;;;;;3.10;2.53;;;;;;;;;;5116550;27;20332;-72
2022/03/07 04:43:07;;;;;;;2.53;2.30;;;;;;;;;;5120230;27;20234;-72
2022/03/07 04:45:54;;;;;;;2.30;2.20;;;;;;;;;;5116876;27;20256;-71
2022/03/07 04:48:41;;;;;;;2.43;2.23;;;;;;;;;;5123228;27;20207;-72
2022/03/07 04:51:28;;;;;;;2.33;2.23;;;;;;;;;;5119563;27;20237;-72
2022/03/07 04:54:16;;;;;;;2.50;2.30;;;;;;;;;;5119953;27;20304;-72
2022/03/07 04:57:05;;;;;;;2.97;2.30;;;;;;;;;;5120249;27;20292;-71
2022/03/07 04:59:52;;;;;;;2.00;1.90;;;;;;;;;;5121639;27;20666;-72
2022/03/07 05:02:38;;;;;;;2.60;2.40;;;;;;;;;;5117656;27;20245;-72
2022/03/07 05:05:25;;;;;;;2.00;1.90;;;;;;;;;;5120943;28;20623;-71
2022/03/07 05:08:12;;;;;;;2.20;2.10;;;;;;;;;;5119673;28;20233;-72
2022/03/07 05:11:01;;;;;;;2.33;2.13;;;;;;;;;;5119693;28;20291;-71
2022/03/07 05:13:48;;;;;;;2.10;2.00;;;;;;;;;;5117780;28;20258;-72
2022/03/07 05:16:35;;;;;;;2.50;2.37;;;;;;;;;;5119762;28;20574;-72
2022/03/07 05:19:23;;;;;;;2.30;2.20;;;;;;;;;;5114004;28;20353;-72
2022/03/07 05:22:10;;;;;;;2.43;2.10;;;;;;;;;;5120200;28;20207;-72
2022/03/07 05:24:57;;;;;;;2.13;1.93;;;;;;;;;;5122019;28;20282;-72
2022/03/07 05:27:46;;;;;;;2.57;2.47;;;;;;;;;;5121486;28;20284;-72
2022/03/07 05:30:33;;;;;;;2.40;2.20;;;;;;;;;;5117977;28;20215;-72
2022/03/07 05:33:20;;;;;;;2.10;2.00;;;;;;;;;;5116430;28;20879;-72
2022/03/07 05:36:07;;;;;;;2.40;2.20;;;;;;;;;;5121677;27;20253;-71
2022/03/07 05:38:54;;;;;;;2.43;2.17;;;;;;;;;;5123095;27;20701;-71
2022/03/07 05:41:41;;;;;;;2.40;2.30;;;;;;;;;;5123641;27;20234;-68
2022/03/07 05:44:29;;;;;;;2.10;2.00;;;;;;;;;;5101806;28;20260;-69
2022/03/07 05:47:16;;;;;;;2.50;2.30;;;;;;;;;;5101765;28;20237;-68
2022/03/07 05:50:04;;;;;;;2.00;1.90;;;;;;;;;;5101156;28;20289;-68
2022/03/07 05:52:51;;;;;;;2.20;2.10;;;;;;;;;;5098906;28;20306;-68
2022/03/07 05:55:38;;;;;;;2.23;2.13;;;;;;;;;;5104907;28;20242;-68
2022/03/07 05:58:25;;;;;;;2.30;2.20;;;;;;;;;;5100466;28;20217;-69
2022/03/07 06:01:13;;;;;;;2.20;2.10;;;;;;;;;;5102492;28;20744;-68
2022/03/07 06:04:00;;;;;;;2.23;2.13;;;;;;;;;;5101787;28;20231;-68
2022/03/07 06:06:47;;;;;;;2.17;2.07;;;;;;;;;;5103021;28;20729;-68
2022/03/07 06:09:34;;;;;;;2.40;2.30;;;;;;;;;;5106250;28;20209;-69
2022/03/07 06:12:21;;;;;;;2.13;2.03;;;;;;;;;;5102903;28;20202;-68
2022/03/07 06:15:09;;;;;;;2.67;2.47;;;;;;;;;;5102128;28;20581;-68
2022/03/07 06:17:59;;;;;;;2.50;2.23;;;;;;;;;;5101818;28;20243;-68
2022/03/07 06:20:45;;;;;;;2.47;2.37;;;;;;;;;;5100272;28;20206;-69
2022/03/07 06:23:33;;;;;;;2.30;2.20;;;;;;;;;;5102922;28;20226;-68
2022/03/07 06:26:20;;;;;;;2.70;2.53;;;;;;;;;;5102054;28;20678;-68
2022/03/07 06:29:07;;;;;;;2.53;2.43;;;;;;;;;;5105146;28;20206;-69
2022/03/07 06:31:54;;;;;;;3.30;2.53;;;;;;;;;;5095833;28;20282;-69
2022/03/07 06:34:42;;;;;;;2.40;2.30;;;;;;;;;;5102565;28;20269;-68
2022/03/07 06:37:29;;;;;;;2.30;2.20;;;;;;;;;;5099759;28;20214;-69
2022/03/07 06:40:16;;;;;;;2.47;2.37;;;;;;;;;;5101648;28;20211;-69
2022/03/07 06:43:03;;;;;;;2.37;2.27;;;;;;;;;;5110385;27;20318;-69
2022/03/07 06:45:51;;;;;;;2.60;2.40;;;;;;;;;;5121167;27;20280;-68
2022/03/07 06:48:39;;;;;;;2.67;2.47;;;;;;;;;;5120018;27;20221;-69
2022/03/07 06:51:27;;;;;;;2.43;2.33;;;;;;;;;;5118901;27;20219;-67
2022/03/07 06:54:14;;;;;;;2.40;2.30;;;;;;;;;;5118623;27;20272;-68
2022/03/07 06:57:03;;;;;;;2.50;2.40;;;;;;;;;;5122661;27;20222;-67
2022/03/07 06:59:51;;;;;;;2.63;2.43;;;;;;;;;;5120604;27;20208;-68
2022/03/07 07:02:37;;;;;;;2.43;2.33;;;;;;;;;;5120576;27;20204;-67
2022/03/07 07:05:25;;;;;;;1.97;1.87;;;;;;;;;;5117239;27;20297;-68
2022/03/07 07:08:13;;;;;;;2.80;2.60;;;;;;;;;;5121699;27;20230;-68
2022/03/07 07:11:00;;;;;;;2.57;2.37;;;;;;;;;;5122540;27;20193;-68
2022/03/07 07:13:47;;;;;;;2.53;2.43;;;;;;;;;;5118550;27;20225;-68
2022/03/07 07:16:34;;;;;;;2.60;2.50;;;;;;;;;;5120609;27;20680;-68
2022/03/07 07:19:21;;;;;;;2.93;2.73;;;;;;;;;;5122071;27;20213;-68
2022/03/07 07:22:08;;;;;;;2.67;2.47;;;;;;;;;;5119962;27;20313;-68
2022/03/07 07:24:56;;;;;;;2.63;2.43;;;;;;;;;;5120523;27;20287;-68
2022/03/07 07:27:43;;;;;;;2.83;2.63;;;;;;;;;;5121882;27;20676;-68
2022/03/07 07:30:30;;;;;;;2.60;2.50;;;;;;;;;;5122581;27;20325;-67
2022/03/07 07:33:17;;;;;;;2.70;2.50;;;;;;;;;;5119052;27;20303;-67
2022/03/07 07:36:05;;;;;;;2.63;2.42;;;;;;;;;;5121962;27;20447;-67
2022/03/07 07:38:52;;;;;;;3.22;2.70;;;;;;;;;;5121624;27;20214;-66
2022/03/07 07:41:40;;;;;;;2.72;2.63;;;;;;;;;;5122136;27;20308;-67
2022/03/07 07:44:27;;;;;;;3.20;2.63;;;;;;;;;;5113933;27;20206;-67
2022/03/07 07:47:14;;;;;;;2.95;2.75;;;;;;;;;;5119681;27;20210;-66
2022/03/07 07:50:01;;;;;;;2.58;2.45;;;;;;;;;;5120586;27;20288;-66
2022/03/07 07:52:48;;;;;;;2.80;2.60;;;;;;;;;;5116326;27;20325;-67
2022/03/07 07:55:35;;;;;;;2.90;2.40;;;;;;;;;;5120407;27;20217;-67
2022/03/07 07:58:23;;;;;;;3.38;2.58;;;;;;;;;;5121668;27;20214;-67
2022/03/07 08:01:10;;;;;;;2.30;2.20;;;;;;;;;;5118484;27;20208;-67
2022/03/07 08:03:57;;;;;;;2.43;2.30;;;;;;;;;;5118989;27;20282;-67
2022/03/07 08:06:44;;;;;;;2.73;2.40;;;;;;;;;;5122638;27;20214;-67
2022/03/07 08:09:31;;;;;;;2.73;2.53;;;;;;;;;;5118481;27;20253;-67
2022/03/07 08:12:18;;;;;;;2.30;2.20;;;;;;;;;;5122007;27;20238;-67
2022/03/07 08:15:11;;;;;;;2.20;2.10;;;;;;;;;;5116423;27;20213;-68
2022/03/07 08:17:58;;;;;;;2.70;2.50;;;;;;;;;;5115236;27;20203;-67
2022/03/07 08:20:45;;;;;;;2.50;2.30;;;;;;;;;;5121781;27;20528;-67
2022/03/07 08:23:32;;;;;;;2.90;2.70;;;;;;;;;;5126458;27;20264;-66
2022/03/07 08:26:19;;;;;;;2.37;2.17;;;;;;;;;;5118500;27;20209;-67
2022/03/07 08:29:06;;;;;;;2.03;1.90;;;;;;;;;;5117758;27;20215;-68
2022/03/07 08:31:55;;;;;;;2.57;2.37;;;;;;;;;;5119634;27;20211;-67
2022/03/07 08:34:41;;;;;;;2.70;2.50;;;;;;;;;;5116916;27;20365;-67
2022/03/07 08:37:28;;;;;;;2.10;2.00;;;;;;;;;;5121679;27;20214;-66
2022/03/07 08:40:17;;;;;;;2.67;2.47;;;;;;;;;;5119062;27;20317;-67
2022/03/07 08:43:04;;;;;;;2.53;2.10;;;;;;;;;;5114859;27;20227;-68
2022/03/07 08:45:51;;;;;;;2.27;2.03;;;;;;;;;;5120520;27;20225;-66
2022/03/07 08:48:39;;;;;;;2.23;2.13;;;;;;;;;;5119079;27;20275;-67
2022/03/07 08:51:26;;;;;;;2.50;2.40;;;;;;;;;;5120798;27;20214;-66
2022/03/07 08:54:15;;;;;;;3.80;2.03;;;;;;;;;;5121920;27;20273;-66
2022/03/07 08:57:02;;;;;;;3.10;2.63;;;;;;;;;;5118617;27;20570;-67
2022/03/07 08:59:49;;;;;;;2.07;1.97;;;;;;;;;;5120272;27;20211;-67
2022/03/07 09:02:37;;;;;;;2.20;2.10;;;;;;;;;;5120214;27;20198;-67
2022/03/07 09:05:25;;;;;;;3.63;2.30;;;;;;;;;;5118431;27;20286;-67
2022/03/07 09:08:12;;;;;;;2.43;2.20;;;;;;;;;;5119894;28;20227;-66
2022/03/07 09:10:59;;;;;;;2.20;2.10;;;;;;;;;;5126159;27;20201;-67
2022/03/07 09:13:46;;;;;;;2.07;1.97;;;;;;;;;;5129056;27;20217;-68
2022/03/07 09:16:33;;;;;;;2.57;1.93;;;;;;;;;;5126576;27;20206;-68
2022/03/07 09:19:20;;;;;;;2.83;2.30;;;;;;;;;;5124704;27;20217;-68
2022/03/07 09:22:09;;;;;;;2.23;2.13;;;;;;;;;;5123235;27;20292;-67
2022/03/07 09:24:55;;;;;;;2.33;2.13;;;;;;;;;;5126612;27;20205;-67
2022/03/07 09:27:44;;;;;;;1.87;1.77;;;;;;;;;;5122901;27;20232;-68
2022/03/07 09:30:32;;;;;;;2.00;1.90;;;;;;;;;;5124554;27;20284;-67
2022/03/07 09:33:18;;;;;;;2.13;2.03;;;;;;;;;;5126696;27;20545;-67
2022/03/07 09:36:06;;;;;;;2.50;2.30;;;;;;;;;;5125555;27;20367;-67
2022/03/07 09:38:54;;;;;;;2.30;2.20;;;;;;;;;;5126341;27;20292;-67
2022/03/07 09:41:42;;;;;;;2.43;2.23;;;;;;;;;;5122483;27;20679;-67
2022/03/07 09:44:29;;;;;;;1.97;1.87;;;;;;;;;;5126515;27;20407;-67
2022/03/07 09:47:17;;;;;;;2.20;2.10;;;;;;;;;;5125102;27;20677;-68
2022/03/07 09:50:04;;;;;;;2.13;1.87;;;;;;;;;;5120283;27;20203;-67
2022/03/07 09:52:54;;;;;;;2.77;2.00;;;;;;;;;;5125746;27;20257;-67
2022/03/07 09:55:43;;;;;;;2.23;1.60;;;;;;;;;;5125441;27;20202;-67
2022/03/07 09:58:30;;;;;;;2.00;1.90;;;;;;;;;;5122925;27;20725;-67
2022/03/07 10:01:19;;;;;;;2.07;1.90;;;;;;;;;;5126665;27;20198;-67
2022/03/07 10:04:07;;;;;;;2.33;2.17;;;;;;;;;;5126379;27;20205;-67
2022/03/07 10:06:54;;;;;;;2.33;1.80;;;;;;;;;;5125538;27;20746;-67
2022/03/07 10:09:41;;;;;;;2.80;2.50;;;;;;;;;;5127747;27;20205;-67
2022/03/07 10:12:30;;;;;;;2.00;1.90;;;;;;;;;;5124998;27;20326;-67
2022/03/07 10:15:19;;;;;;;1.97;1.87;;;;;;;;;;5119407;27;20690;-67
2022/03/07 10:18:06;;;;;;;2.07;1.97;;;;;;;;;;5124771;27;20673;-67
2022/03/07 10:20:56;;;;;;;2.20;2.10;;;;;;;;;;5124931;27;20306;-67
2022/03/07 10:23:51;;;;;;;2.67;2.30;;;;;;;;;;5123132;27;20238;-67
2022/03/07 10:26:38;;;;;;;1.93;1.83;;;;;;;;;;5120272;27;20293;-68
2022/03/07 10:29:26;;;;;;;1.90;1.80;;;;;;;;;;5122748;27;20213;-67
2022/03/07 10:32:17;;;;;;;1.63;1.53;;;;;;;;;;5124428;27;20238;-67
2022/03/07 10:35:04;;;;;;;1.80;1.70;;;;;;;;;;5118262;27;20238;-67
2022/03/07 10:37:56;;;;;;;1.60;1.50;;;;;;;;;;5122191;27;20248;-67
2022/03/07 10:40:47;;;;;;;3.00;2.00;;;;;;;;;;5120993;27;20368;-67
2022/03/07 10:43:34;;;;;;;3.00;1.80;;;;;;;;;;5120872;27;20242;-67
2022/03/07 10:46:26;;;;;;;2.50;1.83;;;;;;;;;;5118721;27;20207;-67
2022/03/07 10:49:13;;;;;;;1.50;1.40;;;;;;;;;;5119087;27;20227;-67
2022/03/07 10:52:05;;;;;;;3.70;1.60;;;;;;;;;;5119480;27;20313;-67
2022/03/07 10:54:52;;;;;;;1.93;1.33;;;;;;;;;;5120149;27;20709;-67
2022/03/07 10:57:40;;;;;;;2.90;1.53;;;;;;;;;;5118958;27;20291;-67
2022/03/07 11:00:27;;;;;;;1.50;1.40;;;;;;;;;;5122567;27;20212;-67
2022/03/07 11:03:22;;;;;;;2.03;1.50;;;;;;;;;;5122830;27;20205;-67
2022/03/07 11:06:09;;;;;;;1.93;1.60;;;;;;;;;;5119377;27;20197;-67
2022/03/07 11:08:56;;;;;;;1.77;1.30;;;;;;;;;;5121683;27;20270;-67
2022/03/07 11:11:44;;;;;;;1.43;1.33;;;;;;;;;;5120227;27;20316;-66
2022/03/07 11:14:32;;;;;;;1.30;1.20;;;;;;;;;;5122453;27;20258;-67
2022/03/07 11:17:19;;;;;;;2.37;1.20;;;;;;;;;;5123725;27;20295;-66
2022/03/07 11:20:09;;;;;;;1.70;1.27;;;;;;;;;;5120275;27;20297;-69
2022/03/07 11:22:56;;;;;;;0.90;0.90;;;;;;;;;;5120327;27;20566;-66
2022/03/07 11:25:44;;;;;;;1.63;1.40;;;;;;;;;;5125370;27;20249;-67
2022/03/07 11:28:32;;;;;;;1.87;1.27;;;;;;;;;;5121099;27;20291;-67
2022/03/07 11:31:20;;;;;;;2.50;1.30;;;;;;;;;;5116654;27;20215;-67
2022/03/07 11:34:08;;;;;;;1.00;1.00;;;;;;;;;;5121163;27;20261;-67
2022/03/07 11:36:57;;;;;;;1.03;0.97;;;;;;;;;;5120634;27;20279;-66
2022/03/07 11:39:44;;;;;;;0.70;0.70;;;;;;;;;;5121099;27;20667;-67
2022/03/07 11:42:36;;;;;;;1.50;1.10;;;;;;;;;;5118334;27;20601;-67
2022/03/07 11:45:24;;;;;;;0.90;0.80;;;;;;;;;;5124681;27;20203;-66
2022/03/07 11:48:13;;;;;;;1.00;1.00;;;;;;;;;;5117129;27;20569;-66
2022/03/07 11:51:01;;;;;;;0.90;0.87;;;;;;;;;;5120380;27;20265;-67
2022/03/07 11:53:50;;;;;;;0.70;0.70;;;;;;;;;;5118537;27;20312;-66
2022/03/07 11:56:39;;;;;;;0.70;0.70;;;;;;;;;;5121309;27;20667;-66
2022/03/07 11:59:30;;;;;;;1.33;0.83;;;;;;;;;;5119207;27;20259;-66
2022/03/07 12:02:17;;;;;;;1.57;0.90;;;;;;;;;;5118960;27;20204;-66
2022/03/07 12:05:04;;;;;;;1.17;1.03;;;;;;;;;;5116636;27;20283;-67
2022/03/07 12:07:52;;;;;;;0.83;0.63;;;;;;;;;;5120138;27;20229;-66
2022/03/07 12:10:53;;;;;;;1.07;0.90;;;;;;;;;;5117053;27;20202;-66
2022/03/07 12:13:48;;;;;;;0.73;0.73;;;;;;;;;;5121276;27;20211;-66
2022/03/07 12:16:36;;;;;;;0.73;0.70;;;;;;;;;;5119215;27;20664;-66
2022/03/07 12:19:23;;;;;;;0.67;0.63;;;;;;;;;;5117504;27;20220;-66
2022/03/07 12:22:12;;;;;;;0.50;0.50;;;;;;;;;;5120845;27;20301;-66
2022/03/07 12:24:59;;;;;;;0.67;0.67;;;;;;;;;;5121617;27;20261;-66
2022/03/07 12:27:57;;;;;;;0.63;0.63;;;;;;;;;;5117370;27;20280;-65
2022/03/07 12:30:43;;;;;;;0.60;0.50;;;;;;;;;;5120814;27;20755;-65
2022/03/07 12:33:31;;;;;;;1.10;0.77;;;;;;;;;;5122543;27;20640;-65
2022/03/07 12:36:18;;;;;;;0.50;0.47;;;;;;;;;;5120664;27;20346;-66
2022/03/07 12:39:05;;;;;;;0.60;0.60;;;;;;;;;;5120540;27;20278;-66
2022/03/07 12:41:52;;;;;;;0.40;0.40;;;;;;;;;;5117506;27;20215;-67
2022/03/07 12:44:41;;;;;;;0.50;0.50;;;;;;;;;;5118233;27;20233;-67
2022/03/07 12:47:30;;;;;;;0.43;0.43;;;;;;;;;;5120627;27;20244;-66
2022/03/07 12:50:17;;;;;;;0.70;0.70;;;;;;;;;;5120350;27;20204;-65
2022/03/07 12:53:04;;;;;;;0.60;0.60;;;;;;;;;;5120382;27;20378;-66
2022/03/07 12:56:01;;;;;;;0.50;0.50;;;;;;;;;;5120718;27;20302;-66
2022/03/07 12:58:51;;;;;;;0.67;0.63;;;;;;;;;;5118703;27;20577;-67
2022/03/07 13:01:49;;;;;;;0.50;0.50;;;;;;;;;;5120225;27;20201;-66
2022/03/07 13:04:36;;;;;;;0.60;0.60;;;;;;;;;;5113717;28;20211;-67
2022/03/07 13:07:25;;;;;;;0.57;0.50;;;;;;;;;;5117944;27;20227;-70
2022/03/07 13:10:13;;;;;;;0.67;0.60;;;;;;;;;;5121309;28;20216;-70
2022/03/07 13:13:04;;;;;;;0.50;0.50;;;;;;;;;;5117166;28;20203;-69
2022/03/07 13:15:51;;;;;;;0.60;0.60;;;;;;;;;;5116903;28;20301;-70
2022/03/07 13:18:39;;;;;;;0.87;0.80;;;;;;;;;;5121643;28;20659;-69
2022/03/07 13:21:27;;;;;;;0.50;0.50;;;;;;;;;;5117868;28;20866;-70
2022/03/07 13:24:17;;;;;;;0.60;0.60;;;;;;;;;;5117255;28;20298;-70
2022/03/07 13:27:09;;;;;;;0.40;0.40;;;;;;;;;;5116908;28;20290;-70
2022/03/07 13:30:05;;;;;;;0.50;0.50;;;;;;;;;;5117644;28;20223;-70
2022/03/07 13:32:52;;;;;;;0.60;0.60;;;;;;;;;;5117379;28;20685;-71
2022/03/07 13:35:40;;;;;;;0.47;0.47;;;;;;;;;;5117399;28;20275;-71
2022/03/07 13:38:27;;;;;;;0.70;0.70;;;;;;;;;;5115629;28;20295;-70
2022/03/07 13:41:14;;;;;;;0.80;0.70;;;;;;;;;;5117301;28;20566;-71
2022/03/07 13:44:09;;;;;;;0.73;0.70;;;;;;;;;;5119425;28;20270;-71
2022/03/07 13:46:58;;;;;;;0.70;0.70;;;;;;;;;;5118498;28;20210;-71
2022/03/07 13:49:47;;;;;;;0.80;0.80;;;;;;;;;;5119010;28;20305;-71
2022/03/07 13:52:36;;;;;;;0.80;0.80;;;;;;;;;;5119267;28;20631;-71
2022/03/07 13:55:24;;;;;;;0.90;0.90;;;;;;;;;;5119451;28;20286;-71
2022/03/07 13:58:14;;;;;;;1.00;1.00;;;;;;;;;;5123005;27;20217;-70
2022/03/07 14:01:09;;;;;;;1.27;1.20;;;;;;;;;;5125152;27;20197;-71
2022/03/07 14:03:56;;;;;;;1.10;1.00;;;;;;;;;;5121660;27;20213;-71
2022/03/07 14:06:44;;;;;;;1.47;1.00;;;;;;;;;;5122466;27;20206;-71
2022/03/07 14:09:32;;;;;;;1.33;1.23;;;;;;;;;;5122277;27;20556;-71
2022/03/07 14:12:27;;;;;;;1.70;1.60;;;;;;;;;;5120787;27;20285;-70
2022/03/07 14:15:13;;;;;;;1.73;1.63;;;;;;;;;;5119773;27;20232;-71
2022/03/07 14:18:02;;;;;;;1.87;1.77;;;;;;;;;;5121322;27;20298;-71
2022/03/07 14:20:49;;;;;;;1.83;1.73;;;;;;;;;;5118503;27;20217;-71
2022/03/07 14:23:36;;;;;;;2.00;1.90;;;;;;;;;;5119995;27;20240;-71
2022/03/07 14:26:25;;;;;;;2.03;1.90;;;;;;;;;;5122706;27;20245;-71
2022/03/07 14:29:12;;;;;;;2.20;2.10;;;;;;;;;;5120168;27;20248;-70
2022/03/07 14:32:00;;;;;;;2.17;2.07;;;;;;;;;;5121808;27;20335;-70
2022/03/07 14:34:49;;;;;;;2.20;2.00;;;;;;;;;;5120913;27;20289;-71
2022/03/07 14:37:36;;;;;;;2.50;2.20;;;;;;;;;;5122166;27;20218;-71
2022/03/07 14:40:23;;;;;;;2.00;1.90;;;;;;;;;;5121137;27;20338;-71
2022/03/07 14:43:11;;;;;;;2.10;2.00;;;;;;;;;;5119365;27;20287;-71
2022/03/07 14:46:01;;;;;;;2.00;1.90;;;;;;;;;;5124531;27;20194;-71
2022/03/07 14:48:47;;;;;;;1.87;1.77;;;;;;;;;;5123852;27;20768;-71
2022/03/07 14:51:34;;;;;;;2.27;2.17;;;;;;;;;;5122929;27;20627;-71
2022/03/07 14:54:23;;;;;;;2.33;2.23;;;;;;;;;;5120015;27;20327;-71
2022/03/07 14:57:11;;;;;;;1.80;1.70;;;;;;;;;;5121464;27;20219;-71
2022/03/07 14:59:59;;;;;;;1.90;1.80;;;;;;;;;;5122049;27;20202;-71
2022/03/07 15:02:46;;;;;;;1.80;1.70;;;;;;;;;;5124942;27;20306;-72
2022/03/07 15:05:33;;;;;;;2.03;1.93;;;;;;;;;;5120196;27;20231;-71
2022/03/07 15:08:20;;;;;;;2.00;1.90;;;;;;;;;;5119011;27;20217;-72
2022/03/07 15:11:07;;;;;;;1.40;1.30;;;;;;;;;;5120634;27;20324;-72
2022/03/07 15:13:54;;;;;;;1.97;1.87;;;;;;;;;;5118068;27;20288;-71
2022/03/07 15:16:43;;;;;;;2.33;2.13;;;;;;;;;;5116249;27;20228;-72
2022/03/07 15:19:30;;;;;;;1.80;1.70;;;;;;;;;;5121101;27;20291;-72
2022/03/07 15:22:18;;;;;;;2.30;2.10;;;;;;;;;;5119579;27;20212;-72
2022/03/07 15:25:06;;;;;;;1.83;1.73;;;;;;;;;;5119775;27;20328;-73
2022/03/07 15:27:53;;;;;;;2.00;1.90;;;;;;;;;;5119035;27;20635;-72
2022/03/07 15:30:41;;;;;;;1.80;1.70;;;;;;;;;;5119028;27;20241;-71
2022/03/07 15:33:29;;;;;;;2.57;1.70;;;;;;;;;;5117481;27;20418;-72
2022/03/07 15:36:16;;;;;;;2.27;1.90;;;;;;;;;;5119693;27;20754;-72
2022/03/07 15:39:06;;;;;;;1.70;1.60;;;;;;;;;;5120376;27;20333;-71
2022/03/07 15:41:53;;;;;;;1.83;1.73;;;;;;;;;;5118858;27;20667;-73
2022/03/07 15:44:41;;;;;;;1.80;1.70;;;;;;;;;;5121961;27;20269;-71
2022/03/07 15:47:28;;;;;;;1.60;1.50;;;;;;;;;;5118084;27;20320;-71
2022/03/07 15:50:16;;;;;;;1.30;1.30;;;;;;;;;;5118270;27;20207;-70
2022/03/07 15:53:03;;;;;;;1.30;1.30;;;;;;;;;;5120658;27;20251;-72
2022/03/07 15:55:52;;;;;;;1.03;1.03;;;;;;;;;;5119439;27;20312;-71
2022/03/07 15:58:42;;;;;;;1.30;1.20;;;;;;;;;;5122102;27;20273;-72
2022/03/07 16:01:29;;;;;;;1.60;1.50;;;;;;;;;;5119936;27;20215;-71
2022/03/07 16:04:16;;;;;;;1.20;1.20;;;;;;;;;;5119969;27;20234;-72
2022/03/07 16:07:05;;;;;;;1.20;1.20;;;;;;;;;;5118036;27;20210;-72
2022/03/07 16:09:52;;;;;;;1.73;1.40;;;;;;;;;;5120277;27;20240;-71
2022/03/07 16:12:41;;;;;;;1.37;1.27;;;;;;;;;;5123955;27;20207;-72
2022/03/07 16:15:30;;;;;;;1.10;1.10;;;;;;;;;;5118532;27;20255;-72
2022/03/07 16:18:18;;;;;;;1.30;1.20;;;;;;;;;;5120875;27;20209;-72
2022/03/07 16:21:05;;;;;;;1.07;1.00;;;;;;;;;;5118596;27;20613;-72
2022/03/07 16:23:54;;;;;;;1.20;1.10;;;;;;;;;;5120592;27;21471;-71
2022/03/07 16:26:41;;;;;;;1.07;1.07;;;;;;;;;;5116248;27;20210;-72
2022/03/07 16:29:28;;;;;;;1.10;1.00;;;;;;;;;;5121811;27;20207;-72
2022/03/07 16:32:15;;;;;;;2.30;1.23;;;;;;;;;;5120241;27;20198;-72
2022/03/07 16:35:02;;;;;;;1.50;1.40;;;;;;;;;;5118771;27;20198;-72
2022/03/07 16:37:49;;;;;;;1.10;1.00;;;;;;;;;;5117964;27;20210;-72
2022/03/07 16:40:38;;;;;;;1.20;1.20;;;;;;;;;;5117865;27;20241;-72
2022/03/07 16:43:25;;;;;;;1.00;1.00;;;;;;;;;;5117974;27;20279;-72
2022/03/07 16:46:12;;;;;;;0.73;0.73;;;;;;;;;;5122203;27;20254;-72